createdAt,value
2023-02-15T00:02:26.212Z,29.70
2023-02-15T00:07:26.877Z,28.17
2023-02-15T00:12:28.867Z,28.55
2023-02-15T00:17:30.427Z,27.10
2023-02-15T00:22:31.081Z,29.60
2023-02-15T00:27:33.065Z,27.60
2023-02-15T00:32:33.739Z,28.75
2023-02-15T00:37:34.504Z,27.10
2023-02-15T00:42:38.751Z,29.15
2023-02-15T00:47:39.426Z,28.83
2023-02-15T00:52:40.095Z,30.02
2023-02-15T00:57:42.078Z,30.35
2023-02-15T01:02:42.760Z,29.77
2023-02-15T01:07:43.421Z,28.88
2023-02-15T01:12:45.458Z,29.95
2023-02-15T01:17:52.104Z,28.15
2023-02-15T01:22:53.752Z,30.33
2023-02-15T01:27:56.813Z,30.15
2023-02-15T01:32:58.284Z,30.10
2023-02-15T01:37:59.390Z,28.50
2023-02-15T01:43:01.418Z,31.58
2023-02-15T01:48:05.557Z,29.48
2023-02-15T01:53:11.769Z,29.45
2023-02-15T01:58:15.178Z,28.63
2023-02-15T02:03:16.704Z,26.65
2023-02-15T02:08:17.435Z,29.23
2023-02-15T02:13:19.446Z,29.15
2023-02-15T02:18:30.003Z,28.65
2023-02-15T02:23:47.571Z,27.80
2023-02-15T02:29:17.991Z,28.80
2023-02-15T02:34:27.802Z,26.75
2023-02-15T02:39:39.456Z,27.50
2023-02-15T02:44:45.367Z,26.85
2023-02-15T02:49:47.419Z,26.20
2023-02-15T02:54:48.135Z,26.58
2023-02-15T02:59:52.338Z,26.67
2023-02-15T03:05:05.222Z,25.33
2023-02-15T03:10:09.905Z,24.75
2023-02-15T03:15:16.877Z,25.80
2023-02-15T03:20:26.452Z,24.88
2023-02-15T03:25:33.571Z,23.67
2023-02-15T03:30:38.038Z,24.08
2023-02-15T03:35:48.448Z,24.48
2023-02-15T03:41:07.245Z,22.85
2023-02-15T03:46:14.296Z,22.13
2023-02-15T03:51:36.297Z,22.25
2023-02-15T03:56:38.678Z,21.80
2023-02-15T04:01:59.230Z,23.00
2023-02-15T04:07:01.373Z,21.13
2023-02-15T04:12:01.995Z,22.33
2023-02-15T04:17:02.661Z,23.30
2023-02-15T04:22:22.412Z,20.98
2023-02-15T04:27:23.047Z,22.48
2023-02-15T04:32:23.723Z,22.25
2023-02-15T04:37:25.764Z,21.10
2023-02-15T04:42:26.930Z,21.08
2023-02-15T04:47:27.790Z,20.80
2023-02-15T04:52:29.754Z,19.55
2023-02-15T04:57:30.415Z,19.65
2023-02-15T05:02:31.107Z,19.95
2023-02-15T05:07:33.087Z,19.92
2023-02-15T05:12:33.749Z,20.52
2023-02-15T05:17:34.755Z,21.10
2023-02-15T05:22:36.787Z,19.33
2023-02-15T05:27:55.202Z,19.73
2023-02-15T05:32:55.864Z,19.48
2023-02-15T05:37:57.885Z,21.33
2023-02-15T05:42:58.697Z,18.83
2023-02-15T05:48:00.071Z,17.85
2023-02-15T05:53:02.156Z,19.40
2023-02-15T05:58:02.817Z,18.40
2023-02-15T06:03:03.531Z,18.48
2023-02-15T06:08:06.150Z,17.55
2023-02-15T06:13:06.828Z,18.63
2023-02-15T06:18:07.948Z,21.83
2023-02-15T06:23:10.088Z,17.88
2023-02-15T06:28:10.751Z,16.67
2023-02-15T06:33:11.468Z,17.23
2023-02-15T06:38:14.517Z,17.40
2023-02-15T06:43:15.594Z,16.75
2023-02-15T06:48:19.063Z,18.55
2023-02-15T06:53:21.098Z,15.52
2023-02-15T06:58:21.735Z,16.52
2023-02-15T07:03:22.419Z,15.38
2023-02-15T07:08:24.612Z,15.05
2023-02-15T07:13:25.301Z,14.25
2023-02-15T07:18:26.105Z,12.52
2023-02-15T07:23:28.310Z,14.52
2023-02-15T07:28:29.061Z,12.70
2023-02-15T07:33:29.942Z,13.75
2023-02-15T07:38:34.766Z,12.43
2023-02-15T07:43:37.151Z,12.65
2023-02-15T07:48:38.357Z,11.38
2023-02-15T07:53:40.806Z,12.40
2023-02-15T07:58:53.915Z,11.57
2023-02-15T08:03:55.498Z,11.60
2023-02-15T08:08:57.711Z,11.75
2023-02-15T08:14:00.987Z,11.50
2023-02-15T08:19:03.465Z,10.23
2023-02-15T08:24:07.082Z,10.13
2023-02-15T08:29:08.908Z,10.73
2023-02-15T08:34:10.445Z,10.45
2023-02-15T08:39:13.133Z,10.88
2023-02-15T08:44:14.497Z,10.10
2023-02-15T08:49:18.848Z,10.68
2023-02-15T08:54:22.932Z,10.98
2023-02-15T08:59:25.149Z,10.40
2023-02-15T09:04:25.834Z,9.82
2023-02-15T09:09:28.035Z,10.55
2023-02-15T09:14:29.132Z,10.82
2023-02-15T09:19:30.087Z,9.70
2023-02-15T09:24:34.118Z,10.10
2023-02-15T09:29:34.904Z,10.85
2023-02-15T09:34:35.892Z,11.63
2023-02-15T09:39:41.403Z,10.70
2023-02-15T09:45:04.551Z,11.88
2023-02-15T09:50:15.669Z,12.35
2023-02-15T09:55:37.647Z,12.18
2023-02-15T10:00:52.028Z,12.20
2023-02-15T10:06:07.602Z,12.88
2023-02-15T10:11:33.996Z,14.32
2023-02-15T10:16:46.662Z,12.80
2023-02-15T10:22:00.883Z,13.88
2023-02-15T10:27:12.572Z,14.48
2023-02-15T10:32:24.808Z,14.38
2023-02-15T10:37:43.434Z,15.25
2023-02-15T10:43:05.387Z,15.45
2023-02-15T10:48:25.437Z,14.82
2023-02-15T10:53:40.266Z,13.48
2023-02-15T10:58:59.676Z,13.73
2023-02-15T11:04:38.146Z,13.27
2023-02-15T11:09:43.347Z,13.23
2023-02-15T11:14:52.006Z,13.77
2023-02-15T11:19:59.054Z,12.80
2023-02-15T11:25:00.766Z,14.20
2023-02-15T11:30:05.776Z,11.55
2023-02-15T11:35:19.985Z,12.90
2023-02-15T11:40:25.639Z,13.13
2023-02-15T11:45:31.582Z,12.77
2023-02-15T11:50:34.608Z,13.07
2023-02-15T11:55:36.115Z,14.00
2023-02-15T12:00:41.522Z,12.98
2023-02-15T12:05:46.509Z,13.60
2023-02-15T12:10:59.182Z,12.65
2023-02-15T12:16:11.115Z,12.20
2023-02-15T12:21:14.761Z,12.68
2023-02-15T12:26:15.998Z,11.60
2023-02-15T12:31:25.125Z,11.63
2023-02-15T12:36:31.313Z,12.38
2023-02-15T12:41:32.193Z,12.05
2023-02-15T12:46:37.958Z,12.18
2023-02-15T12:51:47.252Z,11.63
2023-02-15T12:56:47.922Z,12.18
2023-02-15T13:01:50.869Z,11.93
2023-02-15T13:06:53.945Z,10.80
2023-02-15T13:11:55.186Z,10.90
2023-02-15T13:17:01.663Z,12.38
2023-02-15T13:22:07.539Z,12.60
2023-02-15T13:27:16.973Z,10.80
2023-02-15T13:32:27.614Z,11.55
2023-02-15T13:37:44.905Z,12.55
2023-02-15T13:42:53.463Z,14.07
2023-02-15T13:48:01.959Z,13.10
2023-02-15T13:53:22.494Z,12.82
2023-02-15T13:58:40.803Z,11.40
2023-02-15T14:04:12.640Z,14.40
2023-02-15T14:09:26.673Z,12.50
2023-02-15T14:14:49.588Z,14.13
2023-02-15T14:19:56.449Z,14.55
2023-02-15T14:25:14.564Z,14.60
2023-02-15T14:30:20.496Z,15.88
2023-02-15T14:35:26.110Z,14.40
2023-02-15T14:40:56.841Z,13.98
2023-02-15T14:46:03.509Z,15.13
2023-02-15T14:51:06.153Z,15.77
2023-02-15T14:56:20.180Z,17.75
2023-02-15T15:01:29.407Z,17.73
2023-02-15T15:06:33.768Z,18.58
2023-02-15T15:11:44.793Z,18.30
2023-02-15T15:16:53.322Z,18.05
2023-02-15T15:21:56.871Z,19.05
2023-02-15T15:27:31.006Z,19.00
2023-02-15T15:32:34.968Z,19.63
2023-02-15T15:38:26.428Z,18.80
2023-02-15T15:43:59.839Z,19.35
2023-02-15T15:49:05.015Z,20.05
2023-02-15T15:54:09.447Z,19.75
2023-02-15T15:59:19.113Z,18.83
2023-02-15T16:04:28.461Z,20.00
2023-02-15T16:09:30.464Z,18.65
2023-02-15T16:14:33.683Z,18.58
2023-02-15T16:19:37.452Z,20.55
2023-02-15T16:25:07.771Z,20.73
2023-02-15T16:30:25.344Z,19.58
2023-02-15T16:35:26.172Z,20.73
2023-02-15T16:40:54.720Z,20.30
2023-02-15T16:46:04.685Z,19.45
2023-02-15T16:51:05.920Z,20.38
2023-02-15T16:56:08.513Z,21.88
2023-02-15T17:01:12.391Z,20.38
2023-02-15T17:06:24.430Z,21.35
2023-02-15T17:11:36.771Z,22.20
2023-02-15T17:16:39.450Z,22.45
2023-02-15T17:21:44.608Z,21.40
2023-02-15T17:26:52.286Z,22.00
2023-02-15T17:31:54.396Z,23.52
2023-02-15T17:37:03.246Z,23.90
2023-02-15T17:42:05.499Z,23.85
2023-02-15T17:47:06.426Z,23.85
2023-02-15T17:52:08.471Z,22.80
2023-02-15T17:57:14.399Z,24.70
2023-02-15T18:02:32.589Z,23.70
2023-02-15T18:07:51.017Z,24.08
2023-02-15T18:12:53.042Z,24.63
2023-02-15T18:17:54.283Z,22.73
2023-02-15T18:22:55.503Z,23.73
2023-02-15T18:27:57.601Z,23.33
2023-02-15T18:33:00.479Z,34.00
2023-02-15T18:38:02.375Z,24.98
2023-02-15T18:43:04.403Z,24.45
2023-02-15T18:48:07.315Z,24.08
2023-02-15T18:53:14.522Z,23.83
2023-02-15T18:58:18.571Z,23.33
2023-02-15T19:03:19.294Z,23.77
2023-02-15T19:08:24.556Z,23.23
2023-02-15T19:13:26.957Z,24.73
2023-02-15T19:18:27.682Z,24.20
2023-02-15T19:23:28.343Z,25.67
2023-02-15T19:28:33.227Z,23.15
2023-02-15T19:33:34.649Z,24.52
2023-02-15T19:38:36.873Z,23.88
2023-02-15T19:43:39.192Z,25.33
2023-02-15T19:48:39.872Z,24.70
2023-02-15T19:53:40.937Z,26.02
2023-02-15T19:58:42.938Z,24.63
2023-02-15T20:03:43.609Z,23.63
2023-02-15T20:08:45.180Z,24.45
2023-02-15T20:13:47.270Z,25.65
2023-02-15T20:18:48.049Z,25.50
2023-02-15T20:23:48.869Z,27.00
2023-02-15T20:28:51.065Z,25.55
2023-02-15T20:33:52.032Z,24.85
2023-02-15T20:38:52.758Z,25.60
2023-02-15T20:43:54.894Z,26.73
2023-02-15T20:48:55.597Z,23.70
2023-02-15T20:53:56.302Z,24.60
2023-02-15T20:58:58.387Z,30.55
2023-02-15T21:03:59.093Z,26.08
2023-02-15T21:08:59.837Z,24.38
2023-02-15T21:14:01.916Z,23.55
2023-02-15T21:19:02.734Z,24.98
2023-02-15T21:24:03.479Z,23.77
2023-02-15T21:29:05.546Z,24.63
2023-02-15T21:34:06.227Z,22.92
2023-02-15T21:39:07.702Z,22.15
2023-02-15T21:44:34.558Z,22.58
2023-02-15T21:49:35.308Z,24.15
2023-02-15T21:54:36.027Z,23.35
2023-02-15T21:59:38.103Z,22.80
2023-02-15T22:04:39.614Z,24.10
2023-02-15T22:09:40.450Z,22.25
2023-02-15T22:14:44.366Z,22.50
2023-02-15T22:19:46.144Z,23.30
2023-02-15T22:24:47.183Z,22.58
2023-02-15T22:29:49.820Z,20.27
2023-02-15T22:34:51.381Z,20.23
2023-02-15T22:39:52.176Z,22.02
2023-02-15T22:44:56.308Z,22.80
2023-02-15T22:49:57.118Z,21.73
2023-02-15T22:54:57.781Z,22.38
2023-02-15T23:00:00.667Z,21.77
2023-02-15T23:05:01.567Z,21.63
2023-02-15T23:10:02.283Z,21.33
2023-02-15T23:15:04.448Z,22.38
2023-02-15T23:20:05.680Z,21.05
2023-02-15T23:25:10.483Z,20.25
2023-02-15T23:30:15.386Z,20.30
2023-02-15T23:35:17.458Z,21.50
2023-02-15T23:40:38.116Z,20.55
2023-02-15T23:45:40.613Z,19.95
2023-02-15T23:50:41.339Z,22.05
2023-02-15T23:55:44.989Z,20.60
